Time;durP1;ratioP1;P1;durP2;ratioP2;P2;SDS_P1;SDS_P2;PMS_P1;PMS_P2;Temp;Humidity;BMP_temperature;BMP_pressure;BME280_temperature;BME280_humidity;BME280_pressure;Samples;Min_cycle;Max_cycle;Signal;HPM_P1;HPM_P2
2022/02/07 00:00:08;;;;;;;14.65;7.18;;;;;;;11.18;74.66;101856.69;2073629;28;20049;-77
2022/02/07 00:01:29;;;;;;;21.08;7.35;;;;;;;11.10;74.73;101847.63;2080531;28;20037;-78
2022/02/07 00:02:51;;;;;;;17.38;7.25;;;;;;;11.07;74.81;101855.47;2088820;28;20037;-78
2022/02/07 00:03:57;;;;;;;14.13;7.50;;;;;;;11.03;74.64;101853.56;2079541;28;20049;-78
2022/02/07 00:04:59;;;;;;;16.25;7.43;;;;;;;10.99;74.86;101853.44;2076011;28;20691;-78
2022/02/07 00:06:01;;;;;;;;;;;;;;;10.96;74.84;101861.28;2080994;28;20044;-77
2022/02/07 00:07:04;;;;;;;10.48;4.47;;;;;;;10.88;75.00;101853.09;2080276;28;20000;-78
2022/02/07 00:08:08;;;;;;;12.48;3.60;;;;;;;10.88;75.02;101858.38;2087837;28;20601;-78
2022/02/07 00:09:09;;;;;;;17.95;4.05;;;;;;;10.87;75.25;101848.66;2083184;28;20747;-78
2022/02/07 00:10:12;;;;;;;13.15;4.32;;;;;;;10.90;75.17;101853.13;2096773;28;20044;-78
2022/02/07 00:11:13;;;;;;;9.05;4.53;;;;;;;10.88;75.24;101847.81;2074355;28;20042;-78
2022/02/07 00:12:16;;;;;;;20.58;8.02;;;;;;;10.87;75.34;101840.72;2079811;28;20095;-78
2022/02/07 00:13:18;;;;;;;118.50;103.70;;;;;;;10.89;75.26;101840.78;2088685;28;20534;-78
2022/02/07 00:14:20;;;;;;;;;;;;;;;10.90;75.31;101838.19;2088761;28;20065;-79
2022/02/07 00:15:22;;;;;;;15.90;8.07;;;;;;;10.90;75.42;101843.47;2088402;28;19999;-77
2022/02/07 00:16:26;;;;;;;28.42;13.02;;;;;;;10.96;75.50;101837.50;2087982;28;20037;-77
2022/02/07 00:17:28;;;;;;;27.67;13.63;;;;;;;11.00;75.45;101834.09;2080622;28;20121;-77
2022/02/07 00:18:30;;;;;;;;;;;;;;;11.05;75.49;101830.72;2087264;28;20671;-77
2022/02/07 00:19:31;;;;;;;19.50;9.55;;;;;;;11.04;75.45;101831.56;2073929;28;19926;-77
2022/02/07 00:20:35;;;;;;;27.05;13.10;;;;;;;11.02;75.38;101822.72;2080331;28;20048;-78
2022/02/07 00:21:36;;;;;;;23.67;15.45;;;;;;;11.02;75.41;101827.13;2080402;28;20121;-77
2022/02/07 00:22:39;;;;;;;30.05;16.17;;;;;;;10.97;75.09;101819.03;2088471;28;20463;-77
2022/02/07 00:23:42;;;;;;;21.27;12.95;;;;;;;10.96;75.20;101829.56;2080090;28;20042;-77
2022/02/07 00:24:44;;;;;;;21.25;11.85;;;;;;;10.95;75.02;101814.56;2087809;28;20094;-76
2022/02/07 00:25:46;;;;;;;18.80;9.75;;;;;;;10.94;74.84;101818.06;2088386;28;20033;-77
2022/02/07 00:26:49;;;;;;;19.58;9.50;;;;;;;10.91;75.10;101818.84;2080323;28;20493;-78
2022/02/07 00:27:50;;;;;;;17.67;8.73;;;;;;;10.88;75.22;101818.75;2079775;28;20042;-78
2022/02/07 00:28:54;;;;;;;17.42;8.30;;;;;;;10.86;75.10;101811.63;2079966;28;20045;-78
2022/02/07 00:29:55;;;;;;;19.50;7.32;;;;;;;10.86;75.38;101814.25;2079484;28;20116;-77
2022/02/07 00:30:58;;;;;;;21.05;7.53;;;;;;;10.86;75.44;101807.25;2082434;28;20046;-78
2022/02/07 00:32:01;;;;;;;20.83;7.72;;;;;;;10.87;75.61;101806.41;2092100;28;20045;-78
2022/02/07 00:33:04;;;;;;;21.00;9.43;;;;;;;10.89;75.61;101812.63;2096592;28;20120;-78
2022/02/07 00:34:06;;;;;;;17.95;8.57;;;;;;;10.92;75.86;101806.53;2088103;28;20777;-78
2022/02/07 00:35:11;;;;;;;22.17;8.65;;;;;;;10.95;75.54;101815.47;2088851;28;20055;-79
2022/02/07 00:36:18;;;;;;;23.77;8.75;;;;;;;10.97;75.64;101803.19;2095747;28;20037;-77
2022/02/07 00:37:23;;;;;;;17.08;6.00;;;;;;;10.95;75.60;101790.78;2085045;28;20397;-78
2022/02/07 00:38:26;;;;;;;14.93;5.45;;;;;;;10.95;75.59;101798.72;2086744;28;20041;-79
2022/02/07 00:39:35;;;;;;;16.05;6.63;;;;;;;10.91;75.61;101797.69;2088652;28;20501;-78
2022/02/07 00:42:01;;;;;;;15.90;4.60;;;;;;;10.89;75.96;101788.84;2066339;28;20127;-78
2022/02/07 00:43:14;;;;;;;10.52;3.90;;;;;;;10.91;76.05;101780.94;2079502;28;20041;-79
2022/02/07 00:44:19;;;;;;;20.13;5.72;;;;;;;10.92;76.23;101794.22;2060996;28;20054;-79
2022/02/07 00:45:27;;;;;;;18.30;5.60;;;;;;;10.96;76.27;101788.16;2066411;28;20042;-78
2022/02/07 00:46:35;;;;;;;16.23;5.45;;;;;;;10.97;76.26;101784.69;2071741;28;20068;-79
2022/02/07 00:47:38;;;;;;;21.42;6.15;;;;;;;10.99;76.33;101775.06;2064034;28;20746;-80
2022/02/07 00:48:42;;;;;;;19.58;5.55;;;;;;;11.01;76.27;101785.69;2062582;28;20069;-77
2022/02/07 00:49:45;;;;;;;19.90;6.68;;;;;;;10.98;76.35;101775.91;2072414;28;20068;-78
2022/02/07 00:50:48;;;;;;;19.85;6.72;;;;;;;10.97;76.34;101773.22;2071297;28;20398;-78
2022/02/07 00:51:51;;;;;;;19.40;7.55;;;;;;;10.94;76.39;101776.69;2072411;28;20034;-78
2022/02/07 00:52:53;;;;;;;14.43;5.70;;;;;;;10.90;76.49;101772.13;2086191;28;20033;-78
2022/02/07 00:53:55;;;;;;;13.23;4.80;;;;;;;10.89;76.56;101773.00;2080117;28;20041;-78
2022/02/07 00:54:57;;;;;;;14.55;6.10;;;;;;;10.86;76.50;101767.63;2080110;28;20077;-77
2022/02/07 00:56:00;;;;;;;18.92;7.63;;;;;;;10.85;76.81;101773.75;2079491;28;20046;-78
2022/02/07 00:57:04;;;;;;;15.75;4.60;;;;;;;10.84;76.86;101769.31;2080051;28;20065;-77
2022/02/07 00:58:05;;;;;;;14.70;6.03;;;;;;;10.82;76.98;101765.75;2079576;28;20068;-78
2022/02/07 00:59:08;;;;;;;14.70;5.30;;;;;;;10.83;76.89;101770.16;2082434;28;20045;-77
2022/02/07 01:00:10;;;;;;;15.50;5.30;;;;;;;10.79;76.88;101763.00;2087846;28;20047;-78
2022/02/07 01:01:15;;;;;;;12.73;5.22;;;;;;;10.79;76.89;101755.97;2080412;28;20048;-78
2022/02/07 01:02:23;;;;;;;17.55;5.07;;;;;;;10.77;76.96;101762.03;2085662;28;20041;-78
2022/02/07 01:03:28;;;;;;;21.75;9.77;;;;;;;10.74;76.91;101761.97;2086615;28;20042;-78
2022/02/07 01:04:32;;;;;;;19.00;8.88;;;;;;;10.73;76.96;101749.59;2080516;28;20042;-77
2022/02/07 01:05:42;;;;;;;17.40;6.75;;;;;;;10.73;77.04;101755.78;2081828;28;20041;-78
2022/02/07 01:06:54;;;;;;;11.85;4.53;;;;;;;10.75;77.02;101747.91;2073157;28;20045;-77
2022/02/07 01:08:03;;;;;;;14.82;4.72;;;;;;;10.79;77.10;101744.50;2081431;28;20084;-77
2022/02/07 01:09:14;;;;;;;18.35;5.68;;;;;;;10.81;77.16;101742.81;2080240;28;20072;-77
2022/02/07 01:10:26;;;;;;;13.65;4.25;;;;;;;10.84;77.25;101745.53;2076641;28;20045;-78
2022/02/07 01:11:45;;;;;;;10.57;4.15;;;;;;;10.84;77.35;101737.59;2072332;28;20117;-78
2022/02/07 01:13:06;;;;;;;12.05;3.65;;;;;;;10.88;77.43;101741.25;2082114;28;20096;-78
2022/02/07 01:14:41;;;;;;;9.13;3.47;;;;;;;10.89;77.37;101743.94;2087364;28;20056;-77
2022/02/07 01:15:52;;;;;;;14.50;5.78;;;;;;;10.90;77.36;101740.44;2082123;28;20506;-79
2022/02/07 01:53:21;;;;;;;19.65;6.10;;;;;;;11.12;78.62;101704.97;2022427;29;20044;-80
2022/02/07 01:54:40;;;;;;;10.43;4.75;;;;;;;11.15;78.67;101702.44;2028206;29;20123;-82
2022/02/07 01:55:51;;;;;;;15.80;4.40;;;;;;;11.18;78.70;101706.03;2046234;28;20102;-79
2022/02/07 01:56:54;;;;;;;15.65;6.90;;;;;;;11.20;78.67;101695.53;2073411;28;20129;-79
2022/02/07 01:57:58;;;;;;;18.50;5.80;;;;;;;11.24;78.87;101697.38;2080113;28;20476;-78
2022/02/07 01:59:04;;;;;;;21.30;6.65;;;;;;;11.27;79.15;101697.50;2072685;28;20054;-79
2022/02/07 02:00:13;;;;;;;19.63;6.10;;;;;;;11.29;79.28;101701.03;2079945;28;20184;-79
2022/02/07 02:01:24;;;;;;;;;;;;;;;11.30;79.40;101705.47;2079986;28;20049;-79
2022/02/07 02:02:25;;;;;;;12.07;3.97;;;;;;;11.30;79.54;101700.19;2080406;28;19920;-79
2022/02/07 02:03:28;;;;;;;13.85;4.20;;;;;;;11.33;79.53;101702.94;2079323;28;20143;-78
2022/02/07 02:04:33;;;;;;;13.23;5.40;;;;;;;11.37;79.62;101698.63;2088014;28;20583;-79
2022/02/07 02:05:38;;;;;;;20.42;5.40;;;;;;;11.41;79.67;101700.50;2087848;28;20041;-79
2022/02/07 02:06:48;;;;;;;12.00;4.50;;;;;;;11.42;79.73;101697.88;2087800;28;20083;-79
2022/02/07 02:08:01;;;;;;;13.75;5.50;;;;;;;11.44;80.07;101697.94;2079395;28;20041;-80
2022/02/07 02:09:04;;;;;;;9.35;4.18;;;;;;;11.47;80.21;101703.31;2078662;28;20769;-79
2022/02/07 02:10:12;;;;;;;14.60;5.50;;;;;;;11.50;80.31;101698.09;2088092;28;20045;-78
2022/02/07 02:11:15;;;;;;;13.57;6.65;;;;;;;11.55;80.58;101704.44;2079961;28;20091;-80
2022/02/07 02:12:20;;;;;;;15.80;7.15;;;;;;;11.57;80.61;101702.69;2063757;28;20046;-79
2022/02/07 02:13:25;;;;;;;21.02;7.60;;;;;;;11.59;80.89;101704.53;2071848;28;20038;-79
2022/02/07 02:16:15;;;;;;;15.38;5.85;;;;;;;11.65;81.15;101698.50;2105178;27;20386;-79
2022/02/07 02:17:50;;;;;;;15.48;5.75;;;;;;;11.67;81.30;101704.75;2097526;28;20060;-79
2022/02/07 02:19:22;;;;;;;13.63;3.88;;;;;;;11.69;81.48;101705.66;2098958;28;20040;-80
2022/02/07 02:21:14;;;;;;;9.90;3.85;;;;;;;11.71;81.64;101696.03;2103210;28;20139;-80
2022/02/07 02:33:51;;;;;;;13.48;4.25;;;;;;;11.98;82.53;101675.59;2102106;28;20110;-80
2022/02/07 02:36:27;;;;;;;13.88;5.10;;;;;;;12.02;82.53;101686.22;2081740;28;20124;-80
2022/02/07 02:37:45;;;;;;;15.35;4.82;;;;;;;12.05;82.51;101694.25;2091609;28;20051;-81
2022/02/07 02:39:04;;;;;;;13.02;4.95;;;;;;;12.04;82.49;101688.06;2095463;28;20040;-80
2022/02/07 02:45:43;;;;;;;14.40;4.57;;;;;;;12.12;82.77;101675.03;2100630;28;20044;-79
2022/02/07 02:46:56;;;;;;;13.35;4.82;;;;;;;12.11;82.45;101673.22;2088880;28;20056;-80
2022/02/07 02:48:04;;;;;;;13.77;5.65;;;;;;;12.13;82.69;101683.00;2093836;28;20051;-79
2022/02/07 02:49:09;;;;;;;12.07;5.53;;;;;;;12.13;82.68;101672.44;2103885;28;20044;-80
2022/02/07 02:50:27;;;;;;;14.63;7.00;;;;;;;12.14;82.61;101678.63;2102659;28;20047;-80
2022/02/07 02:51:31;;;;;;;11.27;5.30;;;;;;;12.17;82.91;101676.03;2105025;28;20113;-79
2022/02/07 02:52:34;;;;;;;14.10;7.18;;;;;;;12.16;82.63;101684.81;2102568;28;20081;-80
2022/02/07 02:53:37;;;;;;;15.38;7.00;;;;;;;12.16;82.46;101680.41;2086646;28;20049;-79
2022/02/07 02:54:39;;;;;;;13.10;5.75;;;;;;;12.17;82.57;101682.22;2091812;28;20041;-79
2022/02/07 02:55:44;;;;;;;12.40;6.05;;;;;;;12.18;82.55;101683.13;2102493;28;20044;-80
2022/02/07 02:56:46;;;;;;;11.70;5.07;;;;;;;12.17;82.58;101676.03;2092751;28;20041;-79
2022/02/07 02:57:49;;;;;;;21.67;9.30;;;;;;;12.16;82.53;101675.13;2081467;28;20042;-78
2022/02/07 02:58:54;;;;;;;18.10;9.45;;;;;;;12.17;82.52;101676.03;2103233;28;20127;-81
2022/02/07 03:00:00;;;;;;;26.70;16.45;;;;;;;12.17;82.53;101674.28;2103231;28;20043;-79
2022/02/07 03:01:03;;;;;;;29.70;11.35;;;;;;;12.19;82.59;101674.31;2094798;28;20452;-79
2022/02/07 03:02:25;;;;;;;25.40;14.32;;;;;;;12.19;82.53;101677.88;2094831;28;20116;-78
2022/02/07 03:03:28;;;;;;;47.90;33.67;;;;;;;12.19;82.48;101671.69;2097334;28;20032;-78
2022/02/07 03:04:29;;;;;;;25.65;13.13;;;;;;;12.19;82.40;101674.31;2094556;28;20106;-79
2022/02/07 03:05:32;;;;;;;21.13;10.82;;;;;;;12.18;82.34;101672.53;2098167;28;20044;-79
2022/02/07 03:06:34;;;;;;;17.10;8.90;;;;;;;12.15;82.21;101672.44;2094598;28;20065;-78
2022/02/07 03:07:39;;;;;;;13.50;7.53;;;;;;;12.15;82.27;101673.34;2093785;28;20532;-79
2022/02/07 03:08:42;;;;;;;15.43;6.78;;;;;;;12.13;82.22;101676.81;2078488;28;20098;-78
2022/02/07 03:09:48;;;;;;;18.25;7.68;;;;;;;12.12;82.22;101673.28;2070524;28;20114;-78
2022/02/07 03:11:01;;;;;;;17.67;7.30;;;;;;;12.13;82.32;101674.19;2096011;28;20047;-78
2022/02/07 03:12:05;;;;;;;17.42;5.68;;;;;;;12.10;82.25;101674.97;2101295;28;20099;-78
2022/02/07 03:13:13;;;;;;;12.32;4.60;;;;;;;12.10;82.32;101679.38;2091839;28;20052;-79
2022/02/07 03:14:21;;;;;;;10.60;4.82;;;;;;;12.08;82.30;101674.03;2095829;28;20083;-79
2022/02/07 03:16:50;;;;;;;10.90;4.35;;;;;;;12.05;82.45;101668.69;2090912;28;20688;-80
2022/02/07 03:17:52;;;;;;;12.90;5.40;;;;;;;12.06;82.20;101659.00;2086929;28;20533;-78
2022/02/07 03:18:55;;;;;;;12.88;5.95;;;;;;;12.05;82.51;101660.75;2094163;28;20036;-78
2022/02/07 03:19:59;;;;;;;16.52;4.60;;;;;;;12.06;82.64;101657.25;2094102;28;20647;-78
2022/02/07 03:21:00;;;;;;;10.88;4.93;;;;;;;12.06;82.64;101657.25;2080502;28;20043;-77
2022/02/07 03:22:03;;;;;;;19.35;5.15;;;;;;;12.08;82.65;101654.66;2092600;28;20051;-79
2022/02/07 03:23:06;;;;;;;13.73;4.75;;;;;;;12.06;82.67;101645.78;2091314;28;20514;-78
2022/02/07 03:24:09;;;;;;;10.05;4.68;;;;;;;12.07;82.84;101645.81;2089365;28;20040;-77
2022/02/07 03:25:16;;;;;;;17.77;6.10;;;;;;;12.09;82.83;101635.25;2094525;28;20041;-79
2022/02/07 03:26:24;;;;;;;14.25;5.90;;;;;;;12.09;82.78;101641.44;2086626;28;20084;-78
2022/02/07 03:27:30;;;;;;;12.02;5.15;;;;;;;12.08;82.73;101637.00;2075776;28;20099;-77
2022/02/07 03:28:34;;;;;;;15.35;5.07;;;;;;;12.07;82.72;101637.88;2081925;28;20041;-77
2022/02/07 03:29:37;;;;;;;15.23;4.60;;;;;;;12.08;82.78;101641.41;2080382;28;20053;-78
2022/02/07 03:30:42;;;;;;;9.52;3.90;;;;;;;12.09;82.78;101640.53;2081506;28;20037;-78
2022/02/07 03:31:45;;;;;;;14.52;5.85;;;;;;;12.09;82.82;101627.31;2088717;28;20491;-79
2022/02/07 03:32:51;;;;;;;14.05;4.90;;;;;;;12.11;82.86;101625.59;2086959;28;20068;-78
2022/02/07 03:33:54;;;;;;;12.75;5.68;;;;;;;12.11;82.89;101637.06;2073421;28;20545;-80
2022/02/07 03:34:55;;;;;;;9.55;5.22;;;;;;;12.14;82.91;101636.28;2075375;28;20038;-81
2022/02/07 03:35:59;;;;;;;13.48;4.72;;;;;;;12.14;82.99;101638.91;2097990;28;20036;-81
2022/02/07 03:37:02;;;;;;;16.23;5.00;;;;;;;12.16;83.02;101640.72;2097838;28;20036;-81
2022/02/07 03:38:08;;;;;;;15.05;4.88;;;;;;;12.17;83.12;101644.25;2087034;28;20187;-81
2022/02/07 03:39:12;;;;;;;11.43;5.57;;;;;;;12.15;83.03;101641.56;2081813;28;20065;-81
2022/02/07 03:40:13;;;;;;;14.00;4.70;;;;;;;12.14;82.88;101642.44;2081786;28;20041;-80
2022/02/07 03:41:18;;;;;;;15.50;5.85;;;;;;;12.15;83.01;101641.56;2089565;28;20039;-81
2022/02/07 03:42:20;;;;;;;12.27;5.10;;;;;;;12.15;83.01;101646.88;2083108;28;20053;-80
2022/02/07 03:43:38;;;;;;;10.85;4.80;;;;;;;12.16;83.04;101645.13;2085616;28;20184;-79
2022/02/07 03:44:40;;;;;;;13.85;4.63;;;;;;;12.16;82.97;101645.13;2080768;28;20084;-78
2022/02/07 03:45:42;;;;;;;13.90;4.90;;;;;;;12.17;83.06;101637.22;2088891;28;20120;-80
2022/02/07 03:46:51;;;;;;;11.45;5.05;;;;;;;12.18;83.09;101636.38;2080442;28;20045;-79
2022/02/07 03:47:58;;;;;;;15.55;5.65;;;;;;;12.20;83.12;101639.06;2079733;28;20041;-79
2022/02/07 03:49:07;;;;;;;18.67;4.53;;;;;;;12.21;83.13;101643.47;2073886;28;20141;-79
2022/02/07 03:50:11;;;;;;;11.70;4.18;;;;;;;12.20;83.13;101631.13;2074240;28;20512;-79
2022/02/07 03:51:20;;;;;;;14.38;6.00;;;;;;;12.21;83.09;101635.53;2076565;28;20045;-79
2022/02/07 03:52:21;;;;;;;16.58;6.35;;;;;;;12.21;83.17;101628.47;2094601;28;20804;-80
2022/02/07 03:53:25;;;;;;;11.25;4.72;;;;;;;12.22;83.12;101635.56;2090811;28;20048;-79
2022/02/07 03:54:32;;;;;;;13.73;5.05;;;;;;;12.22;83.13;101632.91;2081938;28;20068;-79
2022/02/07 03:55:39;;;;;;;15.15;5.20;;;;;;;12.22;82.84;101629.38;2081604;28;20057;-80
2022/02/07 03:56:44;;;;;;;12.40;5.22;;;;;;;12.19;82.94;101627.56;2072876;28;20034;-79
2022/02/07 03:57:45;;;;;;;12.07;4.75;;;;;;;12.18;82.87;101627.53;2077132;28;20576;-78
2022/02/07 03:58:48;;;;;;;20.75;5.57;;;;;;;12.18;82.71;101630.19;2096592;28;20458;-79
2022/02/07 03:59:53;;;;;;;16.83;5.43;;;;;;;12.16;82.62;101629.22;2096457;28;20037;-80
2022/02/07 04:00:57;;;;;;;9.07;4.40;;;;;;;12.13;82.56;101618.59;2089194;28;20036;-79
2022/02/07 04:02:08;;;;;;;14.35;4.95;;;;;;;12.12;82.57;101617.69;2090362;28;20045;-79
2022/02/07 04:03:15;;;;;;;13.80;3.95;;;;;;;12.11;82.61;101618.56;2083391;28;20053;-80
2022/02/07 04:04:23;;;;;;;13.90;4.90;;;;;;;12.16;82.66;101613.34;2082355;28;20045;-80
2022/02/07 04:06:52;;;;;;;12.30;3.80;;;;;;;12.17;82.92;101620.44;2089770;28;20080;-81
2022/02/07 04:08:01;;;;;;;9.98;4.10;;;;;;;12.17;82.99;101618.69;2080823;28;20674;-81
2022/02/07 04:09:08;;;;;;;12.23;3.40;;;;;;;12.19;82.97;101613.44;2088831;28;20052;-80
2022/02/07 04:10:23;;;;;;;13.40;3.90;;;;;;;12.20;83.26;101623.16;2081934;28;20147;-78
2022/02/07 04:11:30;;;;;;;14.88;3.97;;;;;;;12.21;83.39;101619.63;2096675;28;20049;-79
2022/02/07 04:12:33;;;;;;;11.10;4.15;;;;;;;12.20;83.46;101626.72;2085838;28;20087;-79
2022/02/07 04:13:40;;;;;;;12.23;3.60;;;;;;;12.23;83.47;101623.22;2080599;28;20068;-78
2022/02/07 04:14:43;;;;;;;13.23;4.03;;;;;;;12.23;83.46;101626.78;2080456;28;20144;-79
2022/02/07 04:15:54;;;;;;;11.93;4.05;;;;;;;12.24;83.53;101623.25;2077922;28;20034;-79
2022/02/07 04:16:57;;;;;;;11.55;3.65;;;;;;;12.27;83.58;101622.47;2084075;28;20112;-78
2022/02/07 04:18:11;;;;;;;16.90;4.65;;;;;;;12.28;83.47;101619.81;2078396;28;20045;-79
2022/02/07 04:19:18;;;;;;;11.73;4.25;;;;;;;12.28;83.52;101627.75;2079289;28;20119;-78
2022/02/07 04:20:20;;;;;;;16.85;3.25;;;;;;;12.31;83.47;101621.66;2089032;28;20037;-79
2022/02/07 04:21:25;;;;;;;12.60;3.75;;;;;;;12.32;83.50;101627.00;2095097;28;20493;-78
2022/02/07 04:22:30;;;;;;;14.07;4.30;;;;;;;12.34;83.52;101629.66;2088243;28;20065;-78
2022/02/07 04:23:56;;;;;;;8.00;3.03;;;;;;;12.35;83.49;101626.13;2084782;28;20629;-79
2022/02/07 04:25:06;;;;;;;7.47;3.22;;;;;;;12.37;83.42;101624.44;2088425;28;20677;-79
2022/02/07 04:26:23;;;;;;;15.15;3.67;;;;;;;12.36;83.48;101626.19;2076582;28;20050;-78
2022/02/07 04:27:24;;;;;;;12.98;4.00;;;;;;;12.40;83.54;101620.97;2086515;28;20405;-80
2022/02/07 04:28:28;;;;;;;14.50;3.92;;;;;;;12.42;83.55;101627.16;2092428;28;20159;-79
2022/02/07 04:29:31;;;;;;;18.27;4.88;;;;;;;12.43;83.53;101621.00;2088461;28;20527;-79
2022/02/07 04:30:35;;;;;;;9.75;2.90;;;;;;;12.44;83.56;101617.50;2088246;28;20056;-79
2022/02/07 04:31:37;;;;;;;14.23;3.63;;;;;;;12.44;83.54;101613.13;2093204;28;20084;-78
2022/02/07 04:32:41;;;;;;;9.98;3.45;;;;;;;12.45;83.56;101614.91;2080604;28;20041;-80
2022/02/07 04:33:44;;;;;;;8.50;3.38;;;;;;;12.49;83.51;101621.16;2078278;28;20057;-79
2022/02/07 04:34:48;;;;;;;11.48;3.30;;;;;;;12.49;83.48;101616.75;2080638;28;20048;-79
2022/02/07 04:35:51;;;;;;;9.15;3.20;;;;;;;12.51;83.48;101622.09;2081444;28;20166;-79
2022/02/07 04:36:56;;;;;;;13.18;3.40;;;;;;;12.50;83.49;101621.19;2086840;28;20045;-78
2022/02/07 04:37:58;;;;;;;15.07;3.83;;;;;;;12.50;83.41;101613.25;2084224;28;20175;-79
2022/02/07 04:39:01;;;;;;;16.38;4.35;;;;;;;12.51;83.39;101615.03;2072736;28;20761;-79
2022/02/07 04:40:07;;;;;;;10.02;3.05;;;;;;;12.52;83.35;101613.28;2079246;28;20132;-80
2022/02/07 04:41:14;;;;;;;14.30;4.18;;;;;;;12.50;83.36;101602.66;2083949;28;20062;-79
2022/02/07 04:42:18;;;;;;;10.45;3.50;;;;;;;12.51;83.31;101617.69;2076895;28;20121;-79
2022/02/07 04:43:21;;;;;;;21.27;4.55;;;;;;;12.49;83.38;101608.81;2088520;28;20040;-79
2022/02/07 04:44:32;;;;;;;13.23;2.90;;;;;;;12.51;83.43;101616.78;2096426;28;20044;-79
2022/02/07 04:47:07;;;;;;;12.93;3.85;;;;;;;12.51;83.53;101615.03;2081479;28;20388;-79
2022/02/07 04:48:38;;;;;;;8.02;3.72;;;;;;;12.51;83.57;101615.03;2075810;28;20042;-78
2022/02/07 04:50:00;;;;;;;20.27;4.18;;;;;;;12.51;83.54;101616.78;2083638;28;20456;-78
2022/02/07 04:51:41;;;;;;;16.17;5.70;;;;;;;12.50;83.54;101615.88;2076508;28;20044;-78
2022/02/07 04:53:09;;;;;;;26.58;10.15;;;;;;;12.49;83.54;101618.50;2084786;28;20041;-78
2022/02/07 04:54:30;;;;;;;28.17;9.57;;;;;;;12.49;83.53;101616.75;2081539;28;20410;-78
2022/02/07 04:55:40;;;;;;;24.48;8.50;;;;;;;12.49;83.61;101624.69;2070940;28;20053;-77
2022/02/07 04:58:08;;;;;;;15.38;7.85;;;;;;;12.47;83.70;101628.19;2077195;28;20252;-78
2022/02/07 04:59:14;;;;;;;15.23;7.18;;;;;;;12.46;83.76;101621.09;2080258;28;20034;-78
2022/02/07 05:00:34;;;;;;;12.70;6.45;;;;;;;12.48;83.82;101614.06;2079239;28;20037;-79
2022/02/07 05:01:48;;;;;;;17.90;5.22;;;;;;;12.48;83.89;101614.94;2079909;28;20046;-78
2022/02/07 05:02:59;;;;;;;14.50;4.85;;;;;;;12.49;83.92;101614.09;2087348;28;20115;-78
2022/02/07 05:04:07;;;;;;;14.60;4.88;;;;;;;12.51;83.97;101619.44;2079671;28;20132;-78
2022/02/07 05:05:22;;;;;;;14.32;5.25;;;;;;;12.50;84.10;101610.59;2080427;28;20045;-78
2022/02/07 05:14:31;;;;;;;16.17;5.03;;;;;;;12.60;84.27;101638.19;2079749;28;20155;-78
2022/02/07 05:15:33;;;;;;;13.48;4.38;;;;;;;12.62;84.45;101631.16;2079389;28;20045;-78
2022/02/07 05:16:37;;;;;;;14.57;3.83;;;;;;;12.64;84.28;101646.22;2078728;28;20103;-78
2022/02/07 05:17:59;;;;;;;15.32;3.88;;;;;;;12.64;84.24;101640.03;2058787;28;20069;-78
2022/02/07 05:19:20;;;;;;;13.65;4.18;;;;;;;12.67;84.47;101643.63;2082778;28;20041;-78
2022/02/07 05:20:44;;;;;;;10.30;3.13;;;;;;;12.69;84.52;101633.97;2054557;28;20187;-78
2022/02/07 05:21:55;;;;;;;15.50;4.15;;;;;;;12.73;84.60;101642.88;2091946;28;20385;-78
2022/02/07 05:23:14;;;;;;;13.60;4.30;;;;;;;12.74;84.58;101631.41;2085425;28;20034;-78
2022/02/07 05:24:43;;;;;;;11.93;4.47;;;;;;;12.75;84.67;101634.09;2064439;28;20042;-78
2022/02/07 05:26:05;;;;;;;10.52;4.32;;;;;;;12.76;84.73;101630.56;2079885;28;20053;-77
2022/02/07 05:27:44;;;;;;;11.68;4.40;;;;;;;12.81;84.74;101630.66;2077369;28;20099;-78
2022/02/07 05:29:06;;;;;;;19.02;5.50;;;;;;;12.83;84.82;101628.06;2087289;28;20041;-78
2022/02/07 05:30:31;;;;;;;16.90;4.00;;;;;;;12.86;84.94;101622.81;2083301;28;20154;-78
2022/02/07 05:32:07;;;;;;;16.58;4.78;;;;;;;12.89;84.94;101615.81;2075496;28;20066;-78
2022/02/07 05:33:29;;;;;;;12.57;3.45;;;;;;;12.92;84.95;101621.19;2087576;28;20609;-77
2022/02/07 05:35:01;;;;;;;9.90;3.13;;;;;;;12.97;85.00;101622.16;2066063;28;20029;-78
2022/02/07 05:36:15;;;;;;;10.77;3.40;;;;;;;13.01;85.03;101613.41;2079073;28;20378;-78
2022/02/07 05:37:35;;;;;;;16.52;4.13;;;;;;;13.06;85.08;101617.03;2078700;28;20089;-78
2022/02/07 05:39:02;;;;;;;14.40;4.05;;;;;;;13.09;84.99;101621.50;2070199;28;20038;-78
2022/02/07 05:40:11;;;;;;;18.95;5.10;;;;;;;13.14;85.01;101617.22;2078955;28;20498;-78
2022/02/07 05:41:44;;;;;;;14.77;7.65;;;;;;;13.19;84.93;101620.88;2083138;28;20627;-77
2022/02/07 05:43:09;;;;;;;19.45;8.07;;;;;;;13.25;84.85;101618.31;2079693;28;20069;-78
2022/02/07 05:44:31;;;;;;;19.45;10.82;;;;;;;13.28;84.89;101622.78;2068654;28;20038;-78
2022/02/07 05:46:06;;;;;;;22.33;11.02;;;;;;;13.33;84.92;101631.69;2060942;28;20045;-77
2022/02/07 05:47:18;;;;;;;18.80;10.27;;;;;;;13.36;84.80;101622.06;2088361;28;20089;-77
2022/02/07 05:48:36;;;;;;;17.60;8.85;;;;;;;13.42;84.70;101623.91;2079751;28;20045;-79
2022/02/07 05:49:47;;;;;;;17.42;9.25;;;;;;;13.46;84.62;101623.09;2079643;28;20116;-77
2022/02/07 05:51:08;;;;;;;22.30;9.75;;;;;;;13.49;84.54;101621.41;2087521;28;20037;-77
2022/02/07 05:52:32;;;;;;;15.85;6.60;;;;;;;13.53;84.35;101625.88;2069047;28;20540;-76
2022/02/07 05:53:49;;;;;;;19.77;6.75;;;;;;;13.54;84.25;101622.38;2083789;28;20037;-76
2022/02/07 05:55:18;;;;;;;19.50;7.75;;;;;;;13.57;84.27;101632.16;2056155;28;20038;-77
2022/02/07 05:56:53;;;;;;;14.73;7.82;;;;;;;13.56;84.18;101631.25;2084680;28;20544;-77
2022/02/07 05:58:17;;;;;;;12.70;6.25;;;;;;;13.58;84.08;101633.94;2080859;28;20036;-78
2022/02/07 05:59:26;;;;;;;19.80;9.25;;;;;;;13.60;83.99;101634.84;2082942;28;20041;-77
2022/02/07 06:00:47;;;;;;;15.65;6.78;;;;;;;13.58;83.86;101639.25;2081293;28;20565;-76
2022/02/07 06:01:52;;;;;;;22.02;6.47;;;;;;;13.62;83.85;101629.56;2075752;28;20052;-77
2022/02/07 06:02:55;;;;;;;14.52;4.95;;;;;;;13.67;83.97;101630.53;2072497;28;20737;-77
2022/02/07 06:04:07;;;;;;;18.35;5.57;;;;;;;13.68;83.85;101630.56;2069878;28;20049;-78
2022/02/07 06:05:09;;;;;;;11.07;3.60;;;;;;;13.71;83.85;101633.28;2060966;28;20064;-77
2022/02/07 06:06:12;;;;;;;11.40;3.95;;;;;;;13.73;83.79;101634.19;2064346;28;20065;-76
2022/02/07 06:07:15;;;;;;;12.10;4.50;;;;;;;13.78;83.73;101628.97;2076298;28;20061;-78
2022/02/07 06:08:17;;;;;;;13.50;3.38;;;;;;;13.85;83.69;101625.53;2077368;28;20528;-78
2022/02/07 06:09:20;;;;;;;13.70;3.70;;;;;;;13.95;83.70;101631.03;2080725;28;20064;-77
2022/02/07 06:10:25;;;;;;;9.95;3.15;;;;;;;14.08;83.62;101620.59;2094423;28;20079;-77
2022/02/07 06:11:28;;;;;;;13.32;3.55;;;;;;;14.22;83.67;101624.34;2087886;28;20409;-77
2022/02/07 06:12:33;;;;;;;12.63;3.38;;;;;;;14.35;83.50;101621.00;2092196;28;20503;-77
2022/02/07 06:13:38;;;;;;;14.32;4.03;;;;;;;14.48;83.37;101628.28;2088801;28;20068;-78
2022/02/07 06:14:43;;;;;;;13.32;4.10;;;;;;;14.54;83.16;101627.47;2075832;28;20045;-77
2022/02/07 06:15:47;;;;;;;17.08;4.10;;;;;;;14.60;83.07;101624.91;2083693;28;20128;-77
2022/02/07 06:16:48;;;;;;;9.27;3.85;;;;;;;14.62;82.88;101621.41;2095978;28;20048;-77
2022/02/07 06:17:54;;;;;;;14.45;3.97;;;;;;;14.69;82.58;101617.06;2086721;28;20045;-77
2022/02/07 06:18:57;;;;;;;12.13;4.90;;;;;;;14.80;82.62;101625.16;2078176;28;20142;-77
2022/02/07 06:20:05;;;;;;;10.13;3.58;;;;;;;14.92;82.29;101623.53;2083199;28;20108;-76
2022/02/07 06:21:13;;;;;;;16.20;4.00;;;;;;;15.01;81.91;101622.75;2072179;28;20042;-76
2022/02/07 06:22:16;;;;;;;11.80;4.45;;;;;;;15.11;81.71;101625.50;2064487;28;20064;-78
2022/02/07 06:23:19;;;;;;;9.15;3.40;;;;;;;15.22;81.35;101619.44;2071228;28;20052;-77
2022/02/07 06:24:24;;;;;;;10.48;4.28;;;;;;;15.30;81.03;101620.38;2070830;28;20046;-77
2022/02/07 06:25:27;;;;;;;11.23;3.17;;;;;;;15.39;80.83;101618.72;2071269;28;20057;-77
2022/02/07 06:26:30;;;;;;;12.55;5.90;;;;;;;15.48;80.31;101625.91;2074594;28;20121;-76
2022/02/07 06:27:33;;;;;;;12.70;4.30;;;;;;;15.57;80.01;101620.69;2077717;28;20121;-77